Time;durP1;ratioP1;P1;durP2;ratioP2;P2;SDS_P1;SDS_P2;PMS_P1;PMS_P2;Temp;Humidity;BMP_temperature;BMP_pressure;BME280_temperature;BME280_humidity;BME280_pressure;Samples;Min_cycle;Max_cycle;Signal;HPM_P1;HPM_P2
2021/11/17 02:25:55;;;;;;;15.70;8.80;;;7.10;99.90;;;;;;5070068;28;20374;-53
2021/11/17 02:28:49;;;;;;;21.42;8.50;;;7.00;99.90;;;;;;5069958;28;20384;-53
2021/11/17 02:31:31;;;;;;;16.23;8.97;;;6.90;99.90;;;;;;5069959;28;20393;-52
2021/11/17 02:34:11;;;;;;;17.83;8.93;;;7.00;99.90;;;;;;5069252;28;20432;-53
2021/11/17 02:36:59;;;;;;;18.90;9.48;;;7.00;99.90;;;;;;5069834;28;20963;-53
2021/11/17 02:39:37;;;;;;;19.80;8.90;;;7.00;99.90;;;;;;5069536;28;20433;-53
2021/11/17 02:42:09;;;;;;;18.80;8.77;;;7.00;99.90;;;;;;5069238;28;20440;-52
2021/11/17 02:44:40;;;;;;;17.48;8.70;;;7.10;99.90;;;;;;5051843;28;20387;-52
2021/11/17 02:47:30;;;;;;;18.35;8.80;;;7.10;99.90;;;;;;5069096;28;20852;-52
2021/11/17 02:50:29;;;;;;;19.27;8.80;;;7.10;99.90;;;;;;5069373;28;20390;-53
2021/11/17 02:53:20;;;;;;;19.20;9.05;;;7.10;99.90;;;;;;5086375;28;20831;-53
2021/11/17 02:56:04;;;;;;;16.77;8.55;;;7.00;99.90;;;;;;5069665;28;20410;-53
2021/11/17 02:58:39;;;;;;;15.15;8.45;;;7.10;99.90;;;;;;5069755;28;20384;-52
2021/11/17 03:01:49;;;;;;;15.45;8.30;;;7.00;99.90;;;;;;5068569;28;20414;-52
2021/11/17 03:04:21;;;;;;;17.85;8.30;;;6.90;99.90;;;;;;5068880;28;20439;-53
2021/11/17 03:07:04;;;;;;;22.23;10.52;;;7.00;99.90;;;;;;5069225;28;20427;-52
2021/11/17 03:09:47;;;;;;;18.05;8.60;;;7.00;99.90;;;;;;5069181;28;20450;-53
2021/11/17 03:12:40;;;;;;;18.73;9.00;;;7.00;99.90;;;;;;5068294;28;20411;-53
2021/11/17 03:15:37;;;;;;;20.23;9.30;;;7.00;99.90;;;;;;5068779;28;20371;-53
2021/11/17 03:18:05;;;;;;;17.77;9.50;;;7.00;99.90;;;;;;5050388;28;20434;-53
2021/11/17 03:20:43;;;;;;;17.23;8.55;;;7.00;99.90;;;;;;5069305;28;20461;-53
2021/11/17 03:23:18;;;;;;;18.35;8.57;;;7.00;99.90;;;;;;5068443;28;20472;-53
2021/11/17 03:26:07;;;;;;;22.10;9.70;;;7.10;99.90;;;;;;5068802;28;21308;-53
2021/11/17 03:28:52;;;;;;;17.98;8.65;;;7.10;99.90;;;;;;5060662;28;20395;-53
2021/11/17 03:31:43;;;;;;;20.73;9.68;;;7.10;99.90;;;;;;5069206;28;20781;-53
2021/11/17 03:34:26;;;;;;;18.27;8.80;;;7.10;99.90;;;;;;5067771;28;20391;-53
2021/11/17 03:37:43;;;;;;;17.17;8.87;;;7.10;99.90;;;;;;5068373;28;20388;-55
2021/11/17 03:40:24;;;;;;;19.33;9.35;;;7.20;99.90;;;;;;5016249;28;20415;-53
2021/11/17 03:43:10;;;;;;;18.97;9.20;;;7.30;99.90;;;;;;5068809;28;20392;-55
2021/11/17 03:45:42;;;;;;;18.65;9.07;;;5.60;99.90;;;;;;5068758;28;20376;-53
2021/11/17 03:48:22;;;;;;;20.48;9.65;;;7.30;99.90;;;;;;5068093;28;20418;-53
2021/11/17 03:51:03;;;;;;;21.00;9.75;;;7.10;99.90;;;;;;5068960;28;20379;-53
2021/11/17 03:53:47;;;;;;;18.98;9.45;;;7.20;99.90;;;;;;5069199;28;20981;-53
2021/11/17 03:56:18;;;;;;;16.90;8.88;;;7.30;99.90;;;;;;5068100;28;20400;-53
2021/11/17 03:58:49;;;;;;;21.95;10.00;;;7.20;99.90;;;;;;5068262;28;20471;-53
2021/11/17 04:01:34;;;;;;;20.97;10.27;;;7.00;99.90;;;;;;5067927;28;20469;-53
2021/11/17 04:04:03;;;;;;;23.77;9.73;;;7.00;99.90;;;;;;5067554;28;20448;-53
2021/11/17 04:06:46;;;;;;;20.15;9.85;;;6.90;99.90;;;;;;5068577;28;20392;-53
2021/11/17 04:09:38;;;;;;;18.88;9.05;;;6.80;99.90;;;;;;5049808;28;20379;-53
2021/11/17 04:12:18;;;;;;;19.45;9.55;;;6.80;99.90;;;;;;5067615;28;20408;-53
2021/11/17 04:15:23;;;;;;;20.63;10.65;;;6.80;99.90;;;;;;5068340;28;20459;-53
2021/11/17 04:17:55;;;;;;;22.63;10.45;;;6.80;99.90;;;;;;5069145;28;20394;-53
2021/11/17 04:20:49;;;;;;;19.57;9.47;;;6.90;99.90;;;;;;5072550;28;20414;-53
2021/11/17 04:23:36;;;;;;;21.73;10.18;;;6.90;99.90;;;;;;5071677;28;20473;-53
2021/11/17 04:26:26;;;;;;;21.17;9.70;;;7.00;99.90;;;;;;5071561;28;20424;-53
2021/11/17 04:28:54;;;;;;;18.00;9.18;;;7.00;99.90;;;;;;5054353;28;20761;-54
2021/11/17 04:31:41;;;;;;;23.23;10.30;;;7.00;99.90;;;;;;5071637;28;20789;-53
2021/11/17 04:34:41;;;;;;;22.60;10.07;;;6.90;99.90;;;;;;5071406;28;20411;-53
2021/11/17 04:37:22;;;;;;;24.30;10.80;;;6.90;99.90;;;;;;5066088;28;20495;-53
2021/11/17 04:40:06;;;;;;;22.83;9.90;;;6.90;99.90;;;;;;5071375;28;20421;-53
2021/11/17 04:42:43;;;;;;;23.92;9.57;;;7.00;99.90;;;;;;5063161;28;20448;-53
2021/11/17 04:45:48;;;;;;;23.65;10.68;;;6.90;99.90;;;;;;5091634;28;20386;-53
2021/11/17 04:48:46;;;;;;;21.80;9.60;;;6.90;99.90;;;;;;5071649;28;20395;-53
2021/11/17 04:51:21;;;;;;;25.35;10.50;;;6.90;99.90;;;;;;5071066;28;20876;-54
2021/11/17 04:53:59;;;;;;;22.98;10.38;;;6.90;99.90;;;;;;5071628;28;20392;-53
2021/11/17 04:56:49;;;;;;;22.48;10.35;;;6.90;99.90;;;;;;5077061;28;20400;-53
2021/11/17 04:59:36;;;;;;;25.20;9.63;;;6.90;99.90;;;;;;5080286;28;20467;-53
2021/11/17 05:02:40;;;;;;;24.38;10.88;;;6.90;99.90;;;;;;5086838;28;20409;-53
2021/11/17 05:05:08;;;;;;;24.00;9.63;;;6.80;99.90;;;;;;5074463;28;20394;-53
2021/11/17 05:07:40;;;;;;;23.45;9.80;;;6.80;99.90;;;;;;5092113;28;20374;-53
2021/11/17 05:10:17;;;;;;;28.38;10.57;;;6.90;99.90;;;;;;5078092;28;20437;-54
2021/11/17 05:13:01;;;;;;;23.05;10.13;;;6.90;99.90;;;;;;5084482;28;20409;-53
2021/11/17 05:15:30;;;;;;;21.92;9.02;;;6.90;99.90;;;;;;5090297;28;20386;-53
2021/11/17 05:18:22;;;;;;;27.40;10.17;;;6.90;99.90;;;;;;5089760;28;20392;-54
2021/11/17 05:21:22;;;;;;;21.13;9.02;;;6.80;99.90;;;;;;5072191;28;20421;-54
2021/11/17 05:23:54;;;;;;;21.00;9.35;;;6.80;99.90;;;;;;5090274;28;20441;-54
2021/11/17 05:26:38;;;;;;;20.75;8.77;;;6.80;99.90;;;;;;5089153;28;20390;-51
2021/11/17 05:29:22;;;;;;;20.50;8.63;;;6.80;99.90;;;;;;5088150;28;20390;-51
2021/11/17 05:32:12;;;;;;;19.92;8.98;;;6.90;99.90;;;;;;5089891;28;20386;-51
2021/11/17 05:34:43;;;;;;;21.67;9.60;;;6.90;99.90;;;;;;5089870;28;20409;-51
2021/11/17 05:37:35;;;;;;;22.45;9.50;;;7.00;99.90;;;;;;5088622;28;20390;-51
2021/11/17 05:40:13;;;;;;;20.58;9.10;;;7.00;99.90;;;;;;5041351;28;20409;-51
2021/11/17 05:42:41;;;;;;;18.52;8.55;;;7.00;99.90;;;;;;5089349;28;20464;-50
2021/11/17 05:45:48;;;;;;;19.47;9.10;;;6.90;99.90;;;;;;5087893;28;20852;-52
2021/11/17 05:48:28;;;;;;;22.03;9.20;;;6.80;99.90;;;;;;5088420;28;20370;-52
2021/11/17 05:51:18;;;;;;;23.30;9.40;;;6.80;99.90;;;;;;5089402;28;20389;-52
2021/11/17 05:54:10;;;;;;;20.45;8.45;;;6.80;99.90;;;;;;5089375;28;20431;-51
2021/11/17 05:56:59;;;;;;;17.75;8.60;;;6.80;99.90;;;;;;5067040;28;20481;-51
2021/11/17 06:00:02;;;;;;;17.85;7.85;;;6.80;99.90;;;;;;5083461;28;20392;-52
2021/11/17 06:02:27;;;;;;;21.90;9.20;;;6.60;99.90;;;;;;5050280;28;20918;-52
2021/11/17 06:04:53;;;;;;;22.03;8.97;;;6.60;99.90;;;;;;5078865;28;20485;-52
2021/11/17 06:07:18;;;;;;;20.13;8.48;;;6.70;99.90;;;;;;5085847;28;21013;-52
2021/11/17 06:09:44;;;;;;;18.60;7.97;;;6.50;99.90;;;;;;5086362;28;20481;-52
2021/11/17 06:12:14;;;;;;;19.40;8.40;;;6.50;99.90;;;;;;5010144;28;1802523;-52
2021/11/17 06:14:44;;;;;;;19.15;7.60;;;6.60;99.90;;;;;;5033929;28;20391;-53
2021/11/17 06:17:15;;;;;;;20.40;7.72;;;6.60;99.90;;;;;;5069280;28;20384;-52
2021/11/17 06:19:44;;;;;;;20.27;7.93;;;6.60;99.90;;;;;;5070726;28;20383;-52
2021/11/17 06:22:11;;;;;;;18.48;7.90;;;6.50;99.90;;;;;;5069179;28;20412;-53
2021/11/17 06:24:38;;;;;;;17.92;8.35;;;6.50;99.90;;;;;;5069902;28;20437;-52
2021/11/17 06:27:06;;;;;;;22.38;7.68;;;6.60;99.90;;;;;;5066582;28;20896;-54
2021/11/17 06:29:39;;;;;;;17.95;7.68;;;6.60;99.90;;;;;;5069786;28;20392;-52
2021/11/17 06:32:07;;;;;;;20.52;7.90;;;6.60;99.90;;;;;;5069291;28;20384;-53
2021/11/17 06:34:49;;;;;;;17.38;7.60;;;6.60;99.90;;;;;;5069857;28;20372;-53
2021/11/17 06:37:17;;;;;;;13.88;5.95;;;6.70;99.90;;;;;;5069117;28;20471;-53
2021/11/17 06:39:46;;;;;;;16.13;6.80;;;6.80;99.90;;;;;;5069263;28;20426;-52
2021/11/17 06:42:15;;;;;;;15.67;7.03;;;6.60;99.90;;;;;;5067772;28;20907;-52
2021/11/17 06:44:42;;;;;;;16.60;7.20;;;6.70;99.90;;;;;;5069433;28;20410;-52
2021/11/17 06:47:09;;;;;;;18.70;7.60;;;6.80;99.90;;;;;;5068695;28;20391;-53
2021/11/17 06:49:35;;;;;;;16.73;7.18;;;6.70;99.90;;;;;;5069342;28;20503;-53
2021/11/17 06:52:01;;;;;;;15.40;7.15;;;6.70;99.90;;;;;;5069418;28;20411;-54
2021/11/17 06:54:27;;;;;;;15.50;6.97;;;6.70;99.90;;;;;;5068703;28;20438;-52
2021/11/17 06:56:53;;;;;;;18.02;7.88;;;6.60;99.90;;;;;;5069421;28;20375;-52
2021/11/17 06:59:18;;;;;;;22.47;7.93;;;6.70;99.90;;;;;;5068545;28;21095;-52
2021/11/17 07:01:44;;;;;;;16.77;7.53;;;6.60;99.90;;;;;;5067622;28;20411;-52
2021/11/17 07:04:10;;;;;;;16.73;7.60;;;6.60;99.90;;;;;;5062155;28;20759;-52
2021/11/17 07:06:36;;;;;;;19.40;8.40;;;6.50;99.90;;;;;;5056493;28;20427;-52
2021/11/17 07:09:04;;;;;;;16.50;7.53;;;6.60;99.90;;;;;;5068750;28;20785;-53
2021/11/17 07:11:37;;;;;;;16.25;7.22;;;6.70;99.90;;;;;;5056215;28;20461;-52
2021/11/17 07:14:05;;;;;;;16.35;7.25;;;6.70;99.90;;;;;;5074937;28;20378;-54
2021/11/17 07:16:33;;;;;;;16.88;7.78;;;6.60;99.90;;;;;;5080486;28;20805;-52
2021/11/17 07:18:58;;;;;;;18.97;7.40;;;6.50;99.90;;;;;;5075314;28;20386;-52
2021/11/17 07:21:24;;;;;;;16.20;7.40;;;6.60;99.90;;;;;;5067903;28;20395;-52
2021/11/17 07:23:51;;;;;;;15.70;7.30;;;6.60;99.90;;;;;;5085364;28;20864;-52
2021/11/17 07:26:17;;;;;;;17.00;6.70;;;6.50;99.90;;;;;;5085181;28;20430;-52
2021/11/17 07:28:42;;;;;;;12.70;5.60;;;6.50;99.90;;;;;;5050917;28;20379;-52
2021/11/17 07:31:08;;;;;;;13.90;5.30;;;6.60;99.90;;;;;;5068304;28;20428;-52
2021/11/17 07:33:34;;;;;;;11.00;4.88;;;6.40;99.90;;;;;;5050878;28;20888;-52
2021/11/17 07:35:59;;;;;;;12.70;4.80;;;6.50;99.90;;;;;;5068805;28;20772;-52
2021/11/17 07:38:26;;;;;;;13.82;5.30;;;6.50;99.90;;;;;;5068408;28;20371;-52
2021/11/17 07:40:52;;;;;;;13.32;4.88;;;6.70;99.90;;;;;;5084681;28;20418;-52
2021/11/17 07:43:19;;;;;;;12.75;5.53;;;6.70;99.90;;;;;;5087980;28;20418;-52
2021/11/17 07:45:45;;;;;;;11.60;4.90;;;6.70;99.90;;;;;;5070814;28;20913;-52
2021/11/17 07:48:13;;;;;;;13.27;5.00;;;6.80;99.90;;;;;;5087782;28;20472;-52
2021/11/17 07:50:40;;;;;;;11.27;4.70;;;6.90;99.90;;;;;;5088296;28;20522;-52
2021/11/17 07:53:08;;;;;;;12.30;5.17;;;6.90;99.90;;;;;;5068442;28;20515;-54
2021/11/17 07:55:36;;;;;;;12.48;4.55;;;6.90;99.90;;;;;;5068613;28;20384;-52
2021/11/17 07:58:02;;;;;;;11.55;5.30;;;6.80;99.90;;;;;;5068151;28;20383;-52
2021/11/17 08:00:30;;;;;;;13.40;5.30;;;6.90;99.90;;;;;;5067736;28;20403;-52
2021/11/17 08:02:56;;;;;;;12.00;4.80;;;6.70;99.90;;;;;;5068796;28;20777;-52
2021/11/17 08:05:24;;;;;;;9.77;4.10;;;6.50;99.90;;;;;;5067607;28;20482;-52
2021/11/17 08:07:51;;;;;;;10.60;4.10;;;6.40;99.90;;;;;;5086609;28;20394;-52
2021/11/17 08:10:21;;;;;;;10.32;4.00;;;6.20;99.90;;;;;;5087834;28;20718;-52
2021/11/17 08:12:47;;;;;;;17.05;6.20;;;6.30;99.90;;;;;;5088100;28;20405;-52
2021/11/17 08:15:14;;;;;;;12.90;5.00;;;6.40;99.90;;;;;;5083080;28;20390;-52
2021/11/17 08:17:40;;;;;;;10.93;4.60;;;6.30;99.90;;;;;;5068031;28;20388;-52
2021/11/17 08:20:12;;;;;;;20.25;6.32;;;6.20;99.90;;;;;;5068154;28;20395;-53
2021/11/17 08:22:41;;;;;;;18.23;6.05;;;6.30;99.90;;;;;;5068022;28;20801;-52
2021/11/17 08:25:08;;;;;;;19.35;7.15;;;6.20;99.90;;;;;;5068187;28;20904;-56
2021/11/17 08:27:34;;;;;;;23.85;8.30;;;6.20;99.90;;;;;;5067803;28;20376;-52
2021/11/17 08:30:00;;;;;;;13.93;5.70;;;6.30;99.90;;;;;;5077036;28;20407;-52
2021/11/17 08:32:27;;;;;;;10.35;4.65;;;6.30;99.90;;;;;;5087734;28;20378;-52
2021/11/17 08:34:53;;;;;;;9.32;4.13;;;6.30;99.90;;;;;;5088411;28;20402;-52
2021/11/17 08:37:21;;;;;;;11.35;5.05;;;6.30;99.90;;;;;;5087503;28;20382;-52
2021/11/17 08:39:50;;;;;;;15.20;5.43;;;6.30;99.90;;;;;;5088460;28;20491;-54
2021/11/17 08:42:16;;;;;;;16.90;6.15;;;6.20;99.90;;;;;;5087459;28;20418;-52
2021/11/17 08:44:43;;;;;;;14.77;5.35;;;6.20;99.90;;;;;;5088451;28;20382;-52
2021/11/17 08:47:12;;;;;;;13.13;4.97;;;6.20;99.90;;;;;;5087952;28;20443;-54
2021/11/17 08:49:38;;;;;;;10.27;4.38;;;6.10;99.90;;;;;;5086076;28;20846;-52
2021/11/17 08:52:06;;;;;;;9.80;3.60;;;6.00;99.90;;;;;;5085495;28;20472;-52
2021/11/17 08:54:33;;;;;;;8.18;3.70;;;5.90;99.90;;;;;;5081575;28;21233;-53
2021/11/17 08:57:00;;;;;;;10.95;4.80;;;5.90;99.90;;;;;;5087900;28;20536;-53
2021/11/17 08:59:26;;;;;;;13.70;5.70;;;5.90;99.90;;;;;;5084035;28;20405;-53
2021/11/17 09:01:57;;;;;;;9.15;4.05;;;5.90;99.90;;;;;;5087429;28;20402;-53
2021/11/17 09:04:23;;;;;;;9.00;4.20;;;5.90;99.90;;;;;;5088984;28;20389;-52
2021/11/17 09:06:49;;;;;;;10.47;4.53;;;5.90;99.90;;;;;;5073845;28;20378;-53
2021/11/17 09:09:15;;;;;;;8.70;3.30;;;5.90;99.90;;;;;;5091421;28;20390;-53
2021/11/17 09:11:41;;;;;;;10.15;4.20;;;5.90;99.90;;;;;;5092074;28;20402;-53
2021/11/17 09:14:07;;;;;;;9.20;3.80;;;6.00;99.90;;;;;;5082805;28;20436;-52
2021/11/17 09:16:35;;;;;;;11.43;4.43;;;6.20;99.90;;;;;;5070972;28;20380;-52
2021/11/17 09:19:03;;;;;;;10.93;4.68;;;6.20;99.90;;;;;;5053582;28;20462;-52
2021/11/17 09:21:34;;;;;;;10.43;4.87;;;6.20;99.90;;;;;;5070663;28;20897;-53
2021/11/17 09:24:05;;;;;;;8.57;3.88;;;6.30;99.90;;;;;;5071181;28;20390;-52
2021/11/17 09:26:31;;;;;;;7.90;3.35;;;6.30;99.90;;;;;;5070216;28;20383;-52
2021/11/17 09:28:58;;;;;;;9.48;4.10;;;6.20;99.90;;;;;;5071241;28;20483;-52
2021/11/17 09:31:26;;;;;;;8.43;3.20;;;6.30;99.90;;;;;;5070487;28;20398;-53
2021/11/17 09:33:53;;;;;;;8.75;3.05;;;6.30;99.90;;;;;;5089757;28;20424;-53
2021/11/17 09:36:21;;;;;;;7.15;2.50;;;6.40;99.90;;;;;;5090314;28;20374;-53
2021/11/17 09:38:50;;;;;;;7.38;2.55;;;6.40;99.90;;;;;;5090041;28;20414;-53
2021/11/17 09:41:22;;;;;;;6.38;2.67;;;6.30;99.90;;;;;;5088497;28;20450;-53
2021/11/17 09:43:55;;;;;;;6.57;2.13;;;6.40;99.90;;;;;;5086311;28;20412;-54
2021/11/17 09:46:24;;;;;;;7.70;2.50;;;6.30;99.90;;;;;;5084293;28;20398;-53
2021/11/17 09:48:55;;;;;;;8.00;2.40;;;6.30;99.90;;;;;;5084179;28;20426;-53
2021/11/17 09:51:32;;;;;;;5.10;1.90;;;6.40;99.90;;;;;;5078663;28;20406;-53
2021/11/17 09:54:06;;;;;;;5.88;2.50;;;6.40;99.90;;;;;;5082609;28;20390;-53
2021/11/17 09:56:46;;;;;;;6.10;2.67;;;6.40;99.90;;;;;;5061019;28;20408;-53
2021/11/17 09:59:35;;;;;;;6.25;2.33;;;6.50;99.90;;;;;;5078807;28;20459;-55
2021/11/17 10:02:20;;;;;;;6.07;2.58;;;6.40;99.90;;;;;;5032820;28;20897;-55
2021/11/17 10:04:49;;;;;;;5.85;2.17;;;6.60;99.90;;;;;;5063113;28;20382;-54
2021/11/17 10:07:35;;;;;;;5.57;2.17;;;6.50;99.90;;;;;;5078835;28;20387;-56
2021/11/17 10:13:11;;;;;;;6.60;2.00;;;6.50;99.90;;;;;;5078143;28;20759;-53
2021/11/17 10:15:40;;;;;;;5.30;2.00;;;6.50;99.90;;;;;;5072958;28;20452;-55
2021/11/17 10:18:20;;;;;;;6.28;2.38;;;6.50;99.90;;;;;;5076587;28;20428;-55
2021/11/17 10:20:50;;;;;;;6.72;2.10;;;6.60;99.90;;;;;;5080611;28;20527;-55
2021/11/17 10:23:30;;;;;;;6.38;2.20;;;6.70;99.90;;;;;;5076903;28;20919;-56
2021/11/17 10:26:04;;;;;;;6.10;2.20;;;6.70;99.90;;;;;;5078474;28;21199;-54
2021/11/17 10:28:32;;;;;;;5.18;1.90;;;6.80;99.90;;;;;;5075255;28;20431;-54
2021/11/17 10:31:07;;;;;;;5.13;1.50;;;6.80;99.90;;;;;;5075577;28;20402;-53
2021/11/17 10:33:44;;;;;;;5.37;1.90;;;6.70;99.90;;;;;;5073658;28;21046;-54
2021/11/17 10:36:28;;;;;;;5.80;2.25;;;6.60;99.90;;;;;;5073845;28;20482;-53
2021/11/17 10:39:08;;;;;;;6.87;2.20;;;6.70;99.90;;;;;;5075492;28;20900;-53
2021/11/17 10:41:35;;;;;;;5.40;1.70;;;7.00;99.90;;;;;;5080134;28;20927;-52
2021/11/17 10:44:07;;;;;;;5.85;1.75;;;7.00;99.90;;;;;;5077954;28;20459;-52
2021/11/17 10:46:51;;;;;;;5.80;1.50;;;7.00;99.90;;;;;;5059302;28;21096;-52
2021/11/17 10:49:26;;;;;;;6.20;1.50;;;7.00;99.90;;;;;;5078190;28;20391;-54
2021/11/17 10:51:58;;;;;;;5.90;1.60;;;6.90;99.90;;;;;;5078973;28;20376;-52
2021/11/17 10:54:28;;;;;;;5.30;1.58;;;6.70;99.90;;;;;;5077059;28;21078;-53
2021/11/17 10:57:09;;;;;;;5.68;1.30;;;6.90;99.90;;;;;;5078979;28;20391;-52
2021/11/17 10:59:36;;;;;;;4.80;1.60;;;6.80;99.90;;;;;;5078650;28;20472;-52
2021/11/17 11:02:04;;;;;;;5.50;1.80;;;6.70;99.90;;;;;;5078381;28;20416;-53
2021/11/17 11:05:02;;;;;;;4.50;1.40;;;6.70;99.90;;;;;;5079500;28;20390;-53
2021/11/17 11:07:36;;;;;;;4.30;1.10;;;6.80;99.90;;;;;;5077657;28;20407;-53
2021/11/17 11:10:14;;;;;;;4.32;1.30;;;6.80;99.90;;;;;;5077795;28;20418;-53
2021/11/17 11:12:40;;;;;;;5.20;1.30;;;6.80;99.90;;;;;;5077756;28;20538;-53
2021/11/17 11:15:11;;;;;;;5.45;1.50;;;6.90;99.90;;;;;;5076539;28;20410;-53
2021/11/17 11:17:46;;;;;;;4.50;1.20;;;6.90;99.90;;;;;;5077281;28;20378;-53
2021/11/17 11:20:17;;;;;;;5.10;1.20;;;6.90;99.90;;;;;;5078266;28;20410;-53
2021/11/17 11:23:05;;;;;;;8.50;1.30;;;6.90;99.90;;;;;;5076812;28;20868;-52
2021/11/17 11:25:49;;;;;;;5.20;1.00;;;6.90;99.90;;;;;;5077817;28;20392;-52
2021/11/17 11:28:21;;;;;;;4.07;1.20;;;7.00;99.90;;;;;;5076543;28;20443;-54
2021/11/17 11:31:07;;;;;;;4.15;1.10;;;6.80;99.90;;;;;;5076598;28;20794;-53
2021/11/17 11:33:32;;;;;;;4.43;1.30;;;6.70;99.90;;;;;;5076978;28;21086;-53
2021/11/17 11:36:10;;;;;;;5.00;1.90;;;6.70;99.90;;;;;;5077574;28;20382;-53
2021/11/17 11:39:10;;;;;;;4.82;1.42;;;6.70;99.90;;;;;;5073875;28;20388;-54
2021/11/17 11:42:04;;;;;;;4.55;1.10;;;6.80;99.90;;;;;;5078447;28;20475;-53
2021/11/17 11:44:40;;;;;;;5.60;1.45;;;6.80;99.90;;;;;;5075830;28;20391;-54
2021/11/17 11:47:09;;;;;;;6.65;2.05;;;6.70;99.90;;;;;;5082363;28;20386;-53
2021/11/17 11:49:39;;;;;;;8.70;3.10;;;6.70;99.90;;;;;;5087714;28;20504;-53
2021/11/17 11:52:20;;;;;;;4.30;1.10;;;6.70;99.90;;;;;;5088758;28;20394;-53
2021/11/17 11:54:55;;;;;;;4.07;1.10;;;6.80;99.90;;;;;;5089129;28;20879;-52
2021/11/17 11:57:27;;;;;;;5.70;1.50;;;6.90;99.90;;;;;;5088077;28;20397;-53
2021/11/17 11:59:57;;;;;;;4.28;1.20;;;7.00;99.90;;;;;;5089119;28;20457;-53
2021/11/17 12:02:24;;;;;;;4.65;1.20;;;6.80;99.90;;;;;;5087799;28;20482;-53
2021/11/17 12:04:55;;;;;;;4.80;1.10;;;6.70;99.90;;;;;;5088741;28;20435;-53
2021/11/17 12:07:38;;;;;;;4.40;1.10;;;6.50;99.90;;;;;;5088069;28;20551;-55
2021/11/17 12:10:09;;;;;;;3.90;1.00;;;6.60;99.90;;;;;;5088618;28;20393;-53
2021/11/17 12:12:39;;;;;;;3.90;1.00;;;6.50;99.90;;;;;;5088111;28;20410;-53
2021/11/17 12:15:26;;;;;;;5.88;1.10;;;6.60;99.90;;;;;;5071531;28;20444;-53
2021/11/17 12:18:18;;;;;;;4.70;1.20;;;6.60;99.90;;;;;;5080446;28;20393;-53
2021/11/17 12:21:09;;;;;;;4.93;1.23;;;6.60;99.90;;;;;;5070836;28;20412;-52
2021/11/17 12:23:41;;;;;;;5.13;1.42;;;6.60;99.90;;;;;;5062969;28;20594;-53
2021/11/17 12:26:35;;;;;;;7.35;2.30;;;6.50;99.90;;;;;;5083817;28;20398;-53
2021/11/17 12:29:13;;;;;;;9.13;3.30;;;6.40;99.90;;;;;;5066653;28;20400;-53
2021/11/17 12:32:19;;;;;;;5.85;1.50;;;6.30;99.90;;;;;;5067788;28;20968;-53
2021/11/17 12:34:56;;;;;;;4.72;1.33;;;6.50;99.90;;;;;;5047373;28;20390;-53
2021/11/17 12:37:22;;;;;;;4.90;1.40;;;6.50;99.90;;;;;;5087562;28;20410;-55
2021/11/17 12:39:48;;;;;;;3.90;1.00;;;6.60;99.90;;;;;;5089941;28;20481;-53
2021/11/17 12:42:21;;;;;;;5.00;1.10;;;6.60;99.90;;;;;;5091643;28;20416;-53
2021/11/17 12:44:50;;;;;;;3.95;1.10;;;6.50;99.90;;;;;;5072857;28;20478;-52
2021/11/17 12:47:24;;;;;;;4.28;1.30;;;6.40;99.90;;;;;;5072375;28;20867;-53
2021/11/17 12:50:07;;;;;;;3.42;0.70;;;6.40;99.90;;;;;;5078509;28;20390;-52
2021/11/17 12:52:38;;;;;;;4.60;1.00;;;6.40;99.90;;;;;;5080212;28;20865;-53
2021/11/17 12:55:17;;;;;;;4.82;1.40;;;6.50;99.90;;;;;;5080562;28;20412;-52
2021/11/17 12:58:19;;;;;;;4.50;1.30;;;6.60;99.90;;;;;;5082351;28;20379;-52
2021/11/17 13:01:23;;;;;;;4.72;1.40;;;6.50;99.90;;;;;;5060851;28;20819;-52
2021/11/17 13:03:48;;;;;;;4.88;1.30;;;6.40;99.90;;;;;;5057522;28;20420;-52
2021/11/17 13:06:31;;;;;;;4.63;1.20;;;6.30;99.90;;;;;;5077162;28;20384;-53
2021/11/17 13:09:20;;;;;;;4.75;1.40;;;6.30;99.90;;;;;;5071878;28;20391;-52
2021/11/17 13:12:01;;;;;;;4.38;1.27;;;6.40;99.90;;;;;;5078637;28;20969;-53
2021/11/17 13:14:29;;;;;;;4.57;1.30;;;6.40;99.90;;;;;;5079279;28;20397;-53
2021/11/17 13:17:19;;;;;;;5.30;1.80;;;6.30;99.90;;;;;;5092025;28;20393;-53
2021/11/17 13:19:57;;;;;;;4.20;1.20;;;6.50;99.90;;;;;;5084120;28;21404;-53
2021/11/17 13:22:35;;;;;;;4.13;1.40;;;6.50;99.90;;;;;;5090157;28;20424;-55
2021/11/17 13:25:17;;;;;;;5.40;1.63;;;6.50;99.90;;;;;;5091522;28;20374;-53
2021/11/17 13:27:47;;;;;;;7.35;1.45;;;6.60;99.90;;;;;;5086617;28;20451;-53
2021/11/17 13:30:45;;;;;;;5.53;1.95;;;6.50;99.90;;;;;;5091798;28;20444;-52
2021/11/17 13:33:27;;;;;;;7.28;2.10;;;6.60;99.90;;;;;;5066061;28;20444;-53
2021/11/17 13:35:59;;;;;;;6.05;2.30;;;6.60;99.90;;;;;;5087728;28;20386;-52
2021/11/17 13:38:25;;;;;;;5.65;2.00;;;6.70;99.90;;;;;;5089026;28;20378;-54
2021/11/17 13:40:57;;;;;;;5.30;2.00;;;6.60;99.90;;;;;;5090270;28;20500;-53
2021/11/17 13:43:24;;;;;;;6.00;2.40;;;6.60;99.90;;;;;;5086955;28;20388;-53
2021/11/17 13:45:53;;;;;;;8.95;2.83;;;6.70;99.90;;;;;;5072810;28;20390;-53
2021/11/17 13:48:23;;;;;;;6.68;2.38;;;6.70;99.90;;;;;;5090733;28;20454;-52
2021/11/17 13:50:49;;;;;;;6.45;3.00;;;6.60;99.90;;;;;;5088472;28;20485;-53
2021/11/17 13:53:18;;;;;;;6.55;2.50;;;6.70;99.90;;;;;;5079312;28;20735;-53
2021/11/17 13:55:57;;;;;;;7.05;2.80;;;6.70;99.90;;;;;;5080630;28;20390;-53
2021/11/17 13:58:23;;;;;;;7.18;3.00;;;6.70;99.90;;;;;;5084021;28;20797;-53
2021/11/17 14:00:49;;;;;;;8.50;3.10;;;6.60;99.90;;;;;;5077127;28;20449;-53
2021/11/17 14:03:15;;;;;;;8.38;3.30;;;6.70;99.90;;;;;;5081227;28;20374;-53
2021/11/17 14:05:46;;;;;;;6.23;2.60;;;6.80;99.90;;;;;;5079961;28;20410;-53
2021/11/17 14:08:12;;;;;;;6.20;2.20;;;6.80;99.90;;;;;;5069924;28;20410;-53
2021/11/17 14:10:38;;;;;;;6.43;2.40;;;6.80;99.90;;;;;;5072955;28;20398;-53
2021/11/17 14:13:05;;;;;;;7.25;2.70;;;6.90;99.90;;;;;;5076449;28;20383;-54
2021/11/17 14:15:32;;;;;;;6.80;2.40;;;6.90;99.90;;;;;;5076523;28;20466;-52
2021/11/17 14:17:57;;;;;;;7.60;2.80;;;7.00;99.90;;;;;;5077448;28;20374;-53
2021/11/17 14:20:24;;;;;;;6.87;2.40;;;6.90;99.90;;;;;;5079565;28;20366;-53
2021/11/17 14:22:51;;;;;;;6.30;2.50;;;7.00;99.90;;;;;;5075877;28;20473;-53
2021/11/17 14:25:20;;;;;;;6.68;2.65;;;6.90;99.90;;;;;;5078609;28;20728;-53
2021/11/17 14:27:53;;;;;;;8.50;3.33;;;6.90;99.90;;;;;;5078704;28;20844;-54
2021/11/17 14:30:41;;;;;;;7.68;3.00;;;6.90;99.90;;;;;;5073179;28;20535;-54
2021/11/17 14:33:09;;;;;;;6.03;2.60;;;7.10;99.90;;;;;;5073790;28;20396;-54
2021/11/17 14:35:35;;;;;;;7.72;2.70;;;7.20;99.90;;;;;;5079135;28;20398;-53
2021/11/17 14:38:02;;;;;;;7.80;2.90;;;6.90;99.90;;;;;;5078670;28;20387;-54
2021/11/17 14:40:29;;;;;;;6.63;2.80;;;7.00;99.90;;;;;;5060062;28;20414;-56
2021/11/17 14:42:55;;;;;;;7.45;2.80;;;7.00;99.90;;;;;;5074030;28;20402;-54
2021/11/17 14:45:24;;;;;;;7.45;3.08;;;7.10;99.90;;;;;;5081050;28;20436;-52
2021/11/17 14:47:50;;;;;;;7.72;2.83;;;7.20;99.90;;;;;;5075894;28;20390;-53
2021/11/17 14:50:17;;;;;;;7.55;2.85;;;7.20;99.90;;;;;;5077947;28;20936;-54
2021/11/17 14:52:43;;;;;;;8.60;3.10;;;7.20;99.90;;;;;;5075404;28;20394;-53
2021/11/17 14:55:12;;;;;;;8.00;3.33;;;7.10;99.90;;;;;;5080840;28;20587;-53
2021/11/17 14:57:38;;;;;;;7.40;2.73;;;7.20;99.90;;;;;;5060410;28;20379;-54
2021/11/17 15:00:07;;;;;;;7.00;3.08;;;7.20;99.90;;;;;;5076948;28;20914;-53
2021/11/17 15:02:33;;;;;;;7.68;2.88;;;7.10;99.90;;;;;;5076176;28;20775;-52
2021/11/17 15:04:59;;;;;;;7.37;2.90;;;7.10;99.90;;;;;;5073618;28;20389;-51
2021/11/17 15:07:24;;;;;;;6.57;2.70;;;7.20;99.90;;;;;;5077843;28;20422;-50
2021/11/17 15:09:50;;;;;;;7.40;2.60;;;7.10;99.90;;;;;;5077052;28;20393;-51
2021/11/17 15:12:31;;;;;;;8.10;2.70;;;7.10;99.90;;;;;;5078425;28;20965;-50
2021/11/17 15:14:58;;;;;;;7.30;3.00;;;7.10;99.90;;;;;;5075431;28;20507;-51
2021/11/17 15:17:23;;;;;;;9.20;3.75;;;7.30;99.90;;;;;;5077904;28;20818;-50
2021/11/17 15:19:49;;;;;;;8.80;3.75;;;7.30;99.90;;;;;;5073430;28;20474;-53
2021/11/17 15:22:15;;;;;;;9.47;3.37;;;7.20;99.90;;;;;;5069231;28;20852;-54
2021/11/17 15:24:42;;;;;;;7.07;3.03;;;7.30;99.90;;;;;;5077456;28;20887;-54
2021/11/17 15:27:12;;;;;;;6.40;2.92;;;7.20;99.90;;;;;;5088531;28;20902;-54
2021/11/17 15:29:41;;;;;;;8.13;3.25;;;7.20;99.90;;;;;;5068400;28;20903;-54
2021/11/17 15:32:07;;;;;;;7.50;3.10;;;7.10;99.90;;;;;;5069032;28;20380;-54
2021/11/17 15:34:33;;;;;;;7.80;3.10;;;7.10;99.90;;;;;;5075609;28;20388;-55
2021/11/17 15:36:58;;;;;;;7.77;3.40;;;7.20;99.90;;;;;;5073332;28;20745;-54
2021/11/17 15:39:24;;;;;;;8.10;3.78;;;7.20;99.90;;;;;;5072593;28;20387;-54
2021/11/17 15:41:50;;;;;;;7.93;3.27;;;7.20;99.90;;;;;;5072987;28;20413;-53
2021/11/17 15:44:16;;;;;;;7.68;3.25;;;7.20;99.90;;;;;;5063985;28;20771;-53
2021/11/17 15:46:57;;;;;;;8.57;3.83;;;7.20;99.90;;;;;;5054088;28;20453;-53
2021/11/17 15:49:23;;;;;;;10.85;4.18;;;7.30;99.90;;;;;;5075074;28;20486;-54
2021/11/17 15:51:50;;;;;;;9.35;4.78;;;7.30;99.90;;;;;;5071627;28;20380;-54
2021/11/17 15:54:17;;;;;;;10.97;6.03;;;7.30;99.90;;;;;;5074953;28;20738;-54
2021/11/17 15:56:43;;;;;;;11.70;6.40;;;7.40;99.90;;;;;;5075382;28;20391;-53